Time;durP1;ratioP1;P1;durP2;ratioP2;P2;SDS_P1;SDS_P2;PMS_P1;PMS_P2;Temp;Humidity;BMP_temperature;BMP_pressure;BME280_temperature;BME280_humidity;BME280_pressure;Samples;Min_cycle;Max_cycle;Signal;HPM_P1;HPM_P2
2021/01/19 00:02:24;;;;;;;233.93;86.50;;;;;;;-5.52;82.40;100639.06;5135131;57;21143;-85
2021/01/19 00:07:30;;;;;;;252.53;88.63;;;;;;;-5.48;81.98;100635.99;5124010;57;1138613;-85
2021/01/19 00:12:36;;;;;;;259.70;91.00;;;;;;;-5.43;82.08;100625.21;5036791;57;1142538;-85
2021/01/19 00:17:43;;;;;;;250.57;86.57;;;;;;;-5.37;82.47;100618.28;5046557;57;1142614;-85
2021/01/19 00:22:48;;;;;;;248.05;87.42;;;;;;;-5.34;82.30;100606.63;5020900;57;1142624;-85
2021/01/19 00:27:54;;;;;;;244.17;89.63;;;;;;;-5.26;82.10;100609.56;5086298;57;1140874;-85
2021/01/19 00:33:00;;;;;;;233.30;89.80;;;;;;;-5.18;82.17;100606.44;5012786;57;1142472;-85
2021/01/19 00:38:06;;;;;;;220.00;82.83;;;;;;;-5.15;82.33;100602.11;5020364;57;1142596;-85
2021/01/19 00:43:11;;;;;;;267.97;88.60;;;;;;;-5.09;82.67;100596.03;5038487;57;1142422;-85
2021/01/19 00:48:17;;;;;;;239.63;84.83;;;;;;;-5.07;82.50;100589.98;5099257;57;1140481;-85
2021/01/19 00:53:23;;;;;;;247.97;88.17;;;;;;;-5.03;82.40;100584.33;5029980;57;1142873;-85
2021/01/19 00:58:30;;;;;;;225.10;80.33;;;;;;;-4.97;82.35;100589.42;5014177;57;1142420;-86
2021/01/19 01:03:38;;;;;;;250.80;85.70;;;;;;;-4.92;82.76;100590.22;5109067;57;21122;-85
2021/01/19 01:08:43;;;;;;;223.13;82.53;;;;;;;-4.89;82.52;100579.87;5111878;58;21159;-85
2021/01/19 01:13:49;;;;;;;228.65;82.65;;;;;;;-4.80;82.67;100575.00;5103294;57;1138486;-85
2021/01/19 01:18:54;;;;;;;250.50;84.67;;;;;;;-4.74;82.92;100560.73;5015237;57;1142563;-85
2021/01/19 01:24:00;;;;;;;228.97;81.83;;;;;;;-4.73;82.48;100560.69;5055613;57;1142409;-85
2021/01/19 01:29:06;;;;;;;228.93;85.03;;;;;;;-4.71;82.59;100551.20;5009790;58;1142448;-85
2021/01/19 01:34:12;;;;;;;231.90;87.83;;;;;;;-4.62;82.70;100550.23;5018682;57;1143222;-85
2021/01/19 01:39:17;;;;;;;230.52;80.50;;;;;;;-4.55;82.81;100544.08;5024543;57;1142543;-85
2021/01/19 01:44:23;;;;;;;240.43;86.80;;;;;;;-4.53;82.75;100540.19;5105772;57;21183;-85
2021/01/19 01:49:28;;;;;;;239.93;86.93;;;;;;;-4.50;82.64;100531.97;4950352;58;1138345;-85
2021/01/19 01:54:34;;;;;;;219.80;81.17;;;;;;;-4.43;82.83;100527.57;4832894;59;1147165;-86
2021/01/19 01:59:39;;;;;;;212.63;75.63;;;;;;;-4.40;82.76;100520.60;5038690;58;21056;-85
2021/01/19 02:04:45;;;;;;;212.63;82.60;;;;;;;-4.36;82.83;100518.39;5032312;58;21091;-85
2021/01/19 02:10:27;;;;;;;219.37;78.47;;;;;;;-4.31;82.90;100508.84;5024374;58;21119;-85
2021/01/19 02:16:17;;;;;;;196.07;77.67;;;;;;;-4.23;83.09;100508.70;4960990;58;1138282;-85
2021/01/19 02:22:13;;;;;;;211.07;78.13;;;;;;;-4.19;83.21;100512.09;4936978;58;1142565;-86
2021/01/19 02:28:04;;;;;;;202.83;78.13;;;;;;;-4.14;83.37;100499.52;5041764;58;21104;-86
2021/01/19 02:33:47;;;;;;;199.37;72.03;;;;;;;-4.07;83.40;100497.22;4933411;58;1138287;-85
2021/01/19 02:39:04;;;;;;;217.90;82.53;;;;;;;-4.04;83.23;100497.61;5019111;57;1142503;-87
2021/01/19 02:44:28;;;;;;;292.73;101.07;;;;;;;-3.99;83.35;100491.48;5131086;57;21119;-87
2021/01/19 02:49:33;;;;;;;441.90;133.65;;;;;;;-3.94;83.47;100483.63;5116721;58;21127;-85
2021/01/19 02:54:39;;;;;;;360.10;112.03;;;;;;;-3.85;83.48;100486.05;5023167;57;1148671;-86
2021/01/19 02:59:52;;;;;;;279.47;92.20;;;;;;;-3.79;83.51;100491.08;5052686;57;1144493;-85
2021/01/19 03:05:03;;;;;;;235.30;81.43;;;;;;;-3.75;83.44;100489.30;5096868;57;1142576;-86
2021/01/19 03:10:11;;;;;;;462.82;146.75;;;;;;;-3.68;83.60;100490.89;5012844;57;1142890;-86
2021/01/19 03:15:18;;;;;;;313.30;96.53;;;;;;;-3.62;83.66;100482.56;5093454;57;1142572;-85
2021/01/19 03:20:26;;;;;;;219.37;78.07;;;;;;;-3.58;83.60;100491.11;5127670;57;21133;-86
2021/01/19 03:25:31;;;;;;;181.20;71.57;;;;;;;-3.56;83.51;100491.94;5069207;57;21228;-86
2021/01/19 03:30:37;;;;;;;187.60;73.67;;;;;;;-3.56;83.77;100488.05;5051433;58;21456;-86
2021/01/19 03:35:42;;;;;;;220.97;77.50;;;;;;;-3.57;83.76;100485.06;5033813;58;21155;-86
2021/01/19 03:40:48;;;;;;;403.10;138.23;;;;;;;-3.49;84.01;100475.84;5038260;59;21446;-85
2021/01/19 03:45:53;;;;;;;201.73;77.10;;;;;;;-3.41;84.05;100467.49;5016237;58;21262;-86
2021/01/19 03:50:59;;;;;;;192.93;75.13;;;;;;;-3.37;84.08;100450.59;4968451;58;1138318;-86
2021/01/19 03:56:05;;;;;;;182.07;72.07;;;;;;;-3.33;84.07;100451.36;4935823;58;1142913;-86
2021/01/19 04:01:10;;;;;;;233.50;88.20;;;;;;;-3.27;84.17;100452.09;5003464;58;1142646;-86
2021/01/19 04:06:16;;;;;;;186.67;72.70;;;;;;;-3.26;84.08;100452.94;4966922;57;1142635;-85
2021/01/19 04:11:21;;;;;;;185.70;75.73;;;;;;;-3.16;84.28;100458.74;5014051;57;1140654;-85
2021/01/19 04:16:27;;;;;;;190.47;74.40;;;;;;;-3.11;84.32;100454.33;5036242;59;21241;-85
2021/01/19 04:21:33;;;;;;;135.20;54.47;;;;;;;-3.05;84.35;100451.58;5042661;58;21127;-86
2021/01/19 04:26:39;;;;;;;143.37;55.37;;;;;;;-3.01;84.49;100450.63;5086424;57;21268;-86
2021/01/19 04:31:44;;;;;;;129.50;47.90;;;;;;;-2.96;84.70;100454.82;5020436;57;1138531;-86
2021/01/19 04:36:50;;;;;;;85.23;33.97;;;;;;;-2.90;84.95;100457.25;5060393;57;1142717;-86
2021/01/19 04:41:55;;;;;;;66.27;22.60;;;;;;;-2.84;85.58;100451.94;5127231;57;21127;-86
2021/01/19 04:47:03;;;;;;;88.07;36.37;;;;;;;-2.72;86.12;100453.81;5133103;57;21100;-86
2021/01/19 04:52:15;;;;;;;93.87;36.03;;;;;;;-2.61;86.12;100451.39;5043325;57;1136395;-86
2021/01/19 04:57:23;;;;;;;101.80;41.73;;;;;;;-2.49;86.14;100455.41;5014344;57;1140544;-86
2021/01/19 05:02:54;;;;;;;135.20;58.20;;;;;;;-2.42;86.04;100453.05;5098124;58;1138421;-86
2021/01/19 05:08:19;;;;;;;311.97;156.30;;;;;;;-2.34;86.13;100452.86;5130477;57;21096;-86
2021/01/19 05:13:52;;;;;;;172.80;94.00;;;;;;;-2.28;86.26;100453.53;5028869;57;1140393;-86
2021/01/19 05:18:58;;;;;;;75.25;33.98;;;;;;;-2.20;86.31;100438.66;5059332;57;1142593;-86
2021/01/19 05:24:04;;;;;;;97.80;50.60;;;;;;;-2.10;86.66;100435.80;5078836;57;1140681;-85
2021/01/19 05:29:10;;;;;;;65.27;29.83;;;;;;;-2.00;86.79;100436.83;5043362;57;1140879;-85
2021/01/19 05:34:15;;;;;;;46.63;19.93;;;;;;;-1.90;86.89;100433.53;5054779;57;1140440;-86
2021/01/19 05:39:23;;;;;;;33.67;14.07;;;;;;;-1.78;87.29;100438.36;5121698;57;1138372;-86
2021/01/19 05:44:33;;;;;;;18.83;8.73;;;;;;;-1.64;87.85;100432.77;5148773;57;21114;-85
2021/01/19 05:49:45;;;;;;;33.65;14.75;;;;;;;-1.45;88.88;100433.94;5027617;57;1245836;-88
2021/01/19 05:54:51;;;;;;;54.20;23.57;;;;;;;-1.27;88.57;100428.20;4952230;58;1140662;-85
2021/01/19 06:00:00;;;;;;;446.12;215.72;;;;;;;-1.15;88.39;100426.97;5081345;57;1140410;-86
2021/01/19 06:05:15;;;;;;;433.97;226.83;;;;;;;-1.08;88.03;100427.19;5151231;57;21162;-85
2021/01/19 06:10:23;;;;;;;250.43;123.20;;;;;;;-0.97;88.69;100430.73;5060907;57;1140301;-85
2021/01/19 06:15:30;;;;;;;174.23;112.27;;;;;;;-0.90;88.59;100434.81;5050802;57;1144571;-86
2021/01/19 06:20:44;;;;;;;57.60;42.13;;;;;;;-0.81;89.18;100431.94;5171555;57;21567;-86
2021/01/19 06:25:49;;;;;;;29.37;24.60;;;;;;;-0.73;88.86;100437.27;5182240;57;21277;-87
2021/01/19 06:30:55;;;;;;;26.67;16.47;;;;;;;-0.69;88.78;100431.98;5036551;57;21198;-86
2021/01/19 06:36:01;;;;;;;28.73;15.97;;;;;;;-0.65;88.56;100432.29;5012250;58;21154;-87
2021/01/19 06:41:08;;;;;;;34.73;18.90;;;;;;;-0.59;88.51;100439.41;5011679;58;21284;-86
2021/01/19 06:46:15;;;;;;;21.67;13.13;;;;;;;-0.54;88.28;100441.42;5011588;59;21269;-85
2021/01/19 06:51:20;;;;;;;47.27;22.80;;;;;;;-0.51;89.53;100442.62;5020503;58;21481;-86
2021/01/19 06:56:31;;;;;;;58.30;19.03;;;;;;;-0.45;88.93;100433.75;5047511;58;21173;-86
2021/01/19 07:01:41;;;;;;;242.00;53.50;;;;;;;-0.38;89.08;100428.76;5031601;58;21273;-88
2021/01/19 07:07:09;;;;;;;93.60;25.17;;;;;;;-0.34;88.95;100425.16;4929433;60;21279;-87
2021/01/19 07:12:21;;;;;;;109.87;34.30;;;;;;;-0.30;89.20;100417.64;4718808;62;21188;-88
2021/01/19 07:17:49;;;;;;;207.73;48.67;;;;;;;-0.24;88.73;100422.63;4711573;62;21570;-89
2021/01/19 07:23:10;;;;;;;103.65;28.87;;;;;;;-0.22;88.92;100419.98;4892007;59;1138342;-89
2021/01/19 07:28:16;;;;;;;69.07;22.40;;;;;;;-0.21;88.71;100419.94;4755993;59;1142609;-88
2021/01/19 07:33:24;;;;;;;88.97;27.13;;;;;;;-0.17;89.14;100420.23;4899460;58;1140423;-87
2021/01/19 07:38:30;;;;;;;82.00;23.97;;;;;;;-0.09;89.33;100418.20;4814714;59;1140539;-92
2021/01/19 07:43:37;;;;;;;36.27;16.63;;;;;;;-0.09;89.33;100418.20;4893984;59;1140456;-86
2021/01/19 07:48:43;;;;;;;37.73;16.70;;;;;;;-0.06;89.14;100413.34;4938684;58;1140435;-88
2021/01/19 07:53:57;;;;;;;35.17;15.13;;;;;;;-0.03;89.10;100415.39;4923801;58;1140690;-88
2021/01/19 07:59:03;;;;;;;29.03;15.03;;;;;;;0.02;89.88;100411.75;4922794;58;1140560;-89
2021/01/19 08:04:15;;;;;;;33.13;15.20;;;;;;;0.05;89.60;100413.80;4957420;59;1138453;-88
2021/01/19 08:09:21;;;;;;;63.63;22.10;;;;;;;0.07;89.89;100411.14;4818212;59;1138705;-89
2021/01/19 08:14:37;;;;;;;25.05;11.97;;;;;;;0.12;89.80;100410.53;4918270;58;1138276;-88
2021/01/19 08:19:47;;;;;;;43.90;18.23;;;;;;;0.16;90.60;100407.75;4960689;57;1138315;-89
2021/01/19 08:24:59;;;;;;;45.43;21.48;;;;;;;0.17;89.80;100404.70;4974656;57;1147591;-88
2021/01/19 08:30:01;;;;;;;175.77;84.90;;;;;;;0.25;90.28;100405.27;4934171;57;1138305;-88
2021/01/19 08:35:09;;;;;;;48.27;23.17;;;;;;;0.29;90.05;100400.36;4962023;59;21188;-87
2021/01/19 08:40:24;;;;;;;153.00;64.20;;;;;;;0.33;90.19;100403.22;4964948;59;21165;-86
2021/01/19 08:45:39;;;;;;;649.23;417.97;;;;;;;0.38;90.02;100397.41;4867076;58;1136194;-87
2021/01/19 08:50:45;;;;;;;81.67;37.23;;;;;;;0.41;90.04;100395.15;4793309;59;1142828;-88
2021/01/19 08:55:51;;;;;;;38.83;18.17;;;;;;;0.47;89.73;100401.39;4790941;59;1138507;-86
2021/01/19 09:01:01;;;;;;;32.90;13.13;;;;;;;0.50;89.93;100390.88;4974800;57;1138313;-85
2021/01/19 09:06:09;;;;;;;39.93;18.23;;;;;;;0.55;89.73;100399.37;4958940;58;1138554;-86
2021/01/19 09:11:15;;;;;;;37.57;18.10;;;;;;;0.59;89.39;100391.84;4874661;59;1138334;-86
2021/01/19 09:16:25;;;;;;;45.30;19.95;;;;;;;0.63;89.41;100386.89;4898454;58;1138683;-85
2021/01/19 09:21:32;;;;;;;33.03;14.40;;;;;;;0.66;89.26;100386.78;4853347;59;1138274;-84
2021/01/19 09:26:53;;;;;;;38.27;18.93;;;;;;;0.70;89.22;100384.46;4845050;58;1138444;-85
2021/01/19 09:31:46;;;;;;;36.47;18.67;;;;;;;0.73;89.16;100378.30;4789987;59;1138398;-86
2021/01/19 09:36:51;;;;;;;22.55;11.18;;;;;;;0.76;89.25;100371.67;4830857;59;1138562;-85
2021/01/19 09:42:08;;;;;;;24.60;12.40;;;;;;;0.79;89.73;100364.56;4838643;59;1138592;-86
2021/01/19 09:47:11;;;;;;;27.37;13.87;;;;;;;0.83;89.76;100354.42;4902394;58;1138681;-85
2021/01/19 09:52:17;;;;;;;40.67;18.00;;;;;;;0.87;89.44;100344.75;4854234;58;1138478;-85
2021/01/19 09:57:27;;;;;;;56.77;23.30;;;;;;;0.92;89.23;100345.38;4941100;57;1138247;-86
2021/01/19 10:02:32;;;;;;;47.83;18.83;;;;;;;0.95;89.21;100346.56;4956009;57;1138633;-85
2021/01/19 10:07:38;;;;;;;45.00;19.33;;;;;;;0.98;89.13;100334.27;4877619;58;1138763;-85
2021/01/19 10:12:45;;;;;;;36.03;17.35;;;;;;;1.01;88.98;100313.33;4902048;58;1138353;-86
2021/01/19 10:17:56;;;;;;;34.90;19.23;;;;;;;1.04;89.26;100310.59;5026673;57;1138459;-85
2021/01/19 10:23:02;;;;;;;33.27;16.37;;;;;;;1.10;89.08;100308.17;4985010;57;1138520;-85
2021/01/19 10:28:15;;;;;;;33.23;17.43;;;;;;;1.16;88.99;100299.27;5039317;56;1138566;-85
2021/01/19 10:49:15;;;;;;;32.53;15.70;;;;;;;1.24;88.99;100291.95;5230877;55;21091;-88
2021/01/19 10:54:21;;;;;;;31.80;17.63;;;;;;;1.17;89.72;100272.31;5219704;56;21516;-92
2021/01/19 10:59:26;;;;;;;59.10;22.63;;;;;;;1.22;89.48;100267.76;5193681;56;21270;-92
2021/01/19 11:04:32;;;;;;;236.60;70.50;;;;;;;1.25;89.51;100261.94;5214959;56;21148;-92
2021/01/19 11:09:38;;;;;;;70.63;25.43;;;;;;;1.23;89.65;100247.28;5219410;56;21163;-90
2021/01/19 11:14:43;;;;;;;253.07;99.07;;;;;;;1.32;89.53;100246.44;5214020;56;21143;-91
2021/01/19 11:19:49;;;;;;;69.30;30.73;;;;;;;1.33;89.22;100242.92;5210655;56;21191;-90
2021/01/19 11:24:54;;;;;;;367.63;129.13;;;;;;;1.37;89.22;100237.97;5206497;56;21151;-90
2021/01/19 11:30:01;;;;;;;315.93;122.27;;;;;;;1.40;88.90;100230.00;5214156;56;21458;-90
2021/01/19 11:35:07;;;;;;;104.07;41.47;;;;;;;1.46;88.93;100221.07;5216823;56;21146;-90
2021/01/19 11:40:13;;;;;;;103.20;46.50;;;;;;;1.51;88.86;100216.51;5202216;56;21135;-90
2021/01/19 11:45:19;;;;;;;66.30;32.97;;;;;;;1.53;88.90;100207.32;5211960;56;21167;-91
2021/01/19 11:50:24;;;;;;;59.37;29.17;;;;;;;1.55;88.67;100202.40;5204210;56;21174;-91
2021/01/19 11:55:30;;;;;;;230.30;82.13;;;;;;;1.56;88.70;100186.30;5204688;56;21164;-91
2021/01/19 12:00:36;;;;;;;380.67;94.07;;;;;;;1.57;88.77;100174.51;5198290;56;21080;-92
2021/01/19 12:05:41;;;;;;;245.03;72.53;;;;;;;1.58;88.71;100168.84;5193470;56;21212;-92
2021/01/19 12:10:47;;;;;;;125.90;44.37;;;;;;;1.58;88.73;100155.35;5209677;56;21160;-91
2021/01/19 12:15:53;;;;;;;66.93;29.03;;;;;;;1.58;88.70;100135.80;5198530;56;21168;-92
2021/01/19 12:20:58;;;;;;;74.10;28.77;;;;;;;1.60;88.44;100129.22;5194122;56;21157;-91
2021/01/19 12:26:04;;;;;;;34.43;16.40;;;;;;;1.61;88.35;100115.27;5204330;56;21225;-92
2021/01/19 12:31:10;;;;;;;40.67;18.80;;;;;;;1.61;88.42;100103.55;5207177;56;21507;-93
2021/01/19 12:36:22;;;;;;;23.10;11.97;;;;;;;1.64;88.33;100086.47;5202270;56;21156;-93
2021/01/19 12:41:30;;;;;;;38.20;20.25;;;;;;;1.67;88.46;100075.90;5203874;56;21169;-93
2021/01/19 12:46:36;;;;;;;31.37;18.00;;;;;;;1.71;88.27;100057.41;5177195;56;21505;-93
2021/01/19 12:51:42;;;;;;;42.90;20.27;;;;;;;1.76;88.17;100048.91;5139978;57;21144;-93
2021/01/19 12:56:47;;;;;;;32.77;17.80;;;;;;;1.77;88.34;100038.02;5130520;57;21140;-94
2021/01/19 13:01:53;;;;;;;41.17;20.50;;;;;;;1.74;88.27;100045.53;5146057;57;21193;-94
2021/01/19 13:06:58;;;;;;;44.80;20.27;;;;;;;1.74;88.05;100041.63;5111715;56;21141;-93
2021/01/19 13:12:04;;;;;;;46.40;22.43;;;;;;;1.74;88.07;100028.59;5131738;57;21143;-93
2021/01/19 13:17:10;;;;;;;46.27;26.43;;;;;;;1.78;88.08;100023.23;5137365;57;21147;-95
2021/01/19 13:22:15;;;;;;;62.03;24.20;;;;;;;1.76;88.16;100022.84;5134193;57;21116;-94
2021/01/19 13:27:21;;;;;;;136.33;51.73;;;;;;;1.74;88.21;100005.58;5133373;57;21156;-92
2021/01/19 13:32:27;;;;;;;339.20;101.10;;;;;;;1.74;87.90;100003.82;5130653;57;21441;-94
2021/01/19 13:37:33;;;;;;;149.97;50.40;;;;;;;1.77;87.88;99996.31;5132095;57;21260;-93
2021/01/19 13:42:40;;;;;;;271.07;82.07;;;;;;;1.76;87.92;99982.89;5138307;57;21187;-94
2021/01/19 13:47:45;;;;;;;85.43;36.43;;;;;;;1.73;88.09;99974.77;5156748;56;21081;-93
2021/01/19 13:52:51;;;;;;;133.93;42.80;;;;;;;1.73;87.87;99984.34;5200699;56;21501;-93
2021/01/19 13:57:57;;;;;;;112.40;38.73;;;;;;;1.71;87.92;99971.38;5212088;56;21140;-94
2021/01/19 14:03:02;;;;;;;92.20;41.13;;;;;;;1.68;88.00;99963.70;5208275;56;21308;-93
2021/01/19 14:08:11;;;;;;;51.23;24.13;;;;;;;1.65;87.91;99963.05;5197080;56;21148;-93
2021/01/19 14:13:15;;;;;;;42.87;20.03;;;;;;;1.63;87.87;99959.67;5196576;56;21168;-92
2021/01/19 14:18:21;;;;;;;31.87;17.03;;;;;;;1.63;88.09;99959.67;5207353;56;21155;-93
2021/01/19 14:23:26;;;;;;;44.70;22.73;;;;;;;1.60;88.20;99956.75;5195362;56;21211;-93
2021/01/19 14:28:32;;;;;;;42.77;20.93;;;;;;;1.55;88.15;99948.77;5207576;56;21286;-93
2021/01/19 14:33:38;;;;;;;48.70;20.77;;;;;;;1.54;87.94;99950.52;5214875;56;21163;-94
2021/01/19 14:38:43;;;;;;;40.77;19.10;;;;;;;1.53;88.04;99949.33;5198596;56;21265;-93
2021/01/19 14:43:50;;;;;;;59.57;27.80;;;;;;;1.53;88.02;99944.11;5209725;56;21266;-93
2021/01/19 14:48:57;;;;;;;66.27;29.77;;;;;;;1.53;88.12;99942.81;5195678;56;21635;-93
2021/01/19 14:54:03;;;;;;;65.10;32.47;;;;;;;1.48;88.03;99943.48;5210517;56;21143;-92
2021/01/19 14:59:10;;;;;;;36.13;15.60;;;;;;;1.44;87.90;99935.43;5210157;56;21080;-92
2021/01/19 15:04:19;;;;;;;52.33;25.03;;;;;;;1.43;87.96;99933.74;5209645;56;21266;-92
2021/01/19 15:09:32;;;;;;;52.40;25.37;;;;;;;1.39;87.82;99928.67;5199932;56;21488;-91
2021/01/19 15:14:41;;;;;;;51.60;28.17;;;;;;;1.30;87.90;99925.23;5207707;56;21528;-87
2021/01/19 15:19:51;;;;;;;72.37;32.03;;;;;;;1.25;87.54;99922.00;5198095;56;21127;-86
2021/01/19 15:24:55;;;;;;;50.30;28.40;;;;;;;1.18;87.63;99923.69;5209058;56;21250;-87
2021/01/19 15:30:06;;;;;;;67.50;34.33;;;;;;;1.12;87.57;99915.70;5199909;56;21554;-87
2021/01/19 15:35:12;;;;;;;236.10;81.13;;;;;;;1.08;87.73;99915.46;5208974;56;21210;-87
2021/01/19 15:40:18;;;;;;;64.23;34.70;;;;;;;1.03;87.55;99909.20;5189298;56;21172;-87
2021/01/19 15:45:24;;;;;;;150.57;69.63;;;;;;;0.94;87.48;99897.06;5216128;56;21151;-87
2021/01/19 15:50:29;;;;;;;130.07;49.17;;;;;;;0.93;87.54;99894.91;5151492;56;21143;-87
2021/01/19 15:55:35;;;;;;;184.33;98.47;;;;;;;0.90;87.48;99887.28;5137381;57;21195;-87
2021/01/19 16:00:40;;;;;;;550.70;181.50;;;;;;;0.86;87.87;99892.23;5126237;57;21160;-87
2021/01/19 16:05:46;;;;;;;409.57;107.03;;;;;;;0.84;87.71;99878.45;5125896;57;21100;-87
2021/01/19 16:10:52;;;;;;;250.33;92.43;;;;;;;0.85;87.93;99877.98;5105679;57;21222;-88
2021/01/19 16:15:58;;;;;;;132.30;55.23;;;;;;;0.86;87.80;99882.28;5134770;57;21077;-87
2021/01/19 16:21:04;;;;;;;273.87;108.47;;;;;;;0.83;87.99;99870.70;5123280;57;21156;-87
2021/01/19 16:26:18;;;;;;;213.27;85.70;;;;;;;0.82;87.94;99861.21;5141140;57;21407;-86
2021/01/19 16:31:26;;;;;;;;;;;;;;;0.84;87.84;99864.59;5062141;59;21111;-87
2021/01/19 16:36:35;;;;;;;68.43;30.23;;;;;;;0.85;87.80;99859.31;5129516;57;20322;-87
2021/01/19 16:41:48;;;;;;;65.07;30.43;;;;;;;0.82;87.92;99861.21;5133633;57;21095;-88
2021/01/19 16:46:50;;;;;;;55.37;23.70;;;;;;;0.79;87.99;99855.69;5140714;57;21132;-87
2021/01/19 16:51:56;;;;;;;63.03;26.80;;;;;;;0.80;87.92;99846.97;5174878;56;21136;-87
2021/01/19 16:57:02;;;;;;;55.73;20.67;;;;;;;0.77;88.84;99827.59;5208996;56;21084;-87
2021/01/19 17:02:07;;;;;;;136.97;44.10;;;;;;;0.77;88.44;99835.39;5200289;56;21482;-87
2021/01/19 17:07:13;;;;;;;102.87;34.87;;;;;;;0.80;88.51;99829.20;5199924;56;21131;-87
2021/01/19 17:12:19;;;;;;;61.00;22.60;;;;;;;0.82;88.54;99827.38;5211155;56;21119;-87
2021/01/19 17:17:25;;;;;;;43.93;21.20;;;;;;;0.83;88.81;99823.86;5205443;56;21135;-87
2021/01/19 17:22:31;;;;;;;80.23;30.07;;;;;;;0.82;88.53;99809.16;5219639;56;21131;-87
2021/01/19 17:27:36;;;;;;;67.90;27.13;;;;;;;0.81;88.58;99804.41;5200418;56;21176;-87
2021/01/19 17:32:42;;;;;;;62.03;23.23;;;;;;;0.79;88.48;99799.73;5201957;56;21159;-87
2021/01/19 17:37:47;;;;;;;83.20;28.50;;;;;;;0.82;88.49;99793.08;5198075;56;21176;-87
2021/01/19 17:42:53;;;;;;;62.23;26.93;;;;;;;0.80;88.70;99779.30;5220739;56;21478;-88
2021/01/19 17:47:58;;;;;;;51.23;19.97;;;;;;;0.83;88.68;99781.75;5202168;56;21143;-88
2021/01/19 17:53:04;;;;;;;65.60;25.33;;;;;;;0.86;88.69;99773.80;5197098;56;21473;-87
2021/01/19 17:58:10;;;;;;;60.03;27.17;;;;;;;0.88;88.76;99765.45;5211292;56;21151;-87
2021/01/19 18:03:16;;;;;;;66.87;27.27;;;;;;;0.86;88.71;99763.84;5209637;56;21137;-87
2021/01/19 18:08:21;;;;;;;36.60;16.73;;;;;;;0.88;88.79;99769.82;5209396;56;21191;-88
2021/01/19 18:13:27;;;;;;;33.17;14.40;;;;;;;0.88;89.02;99765.91;5202310;56;21513;-88
2021/01/19 18:18:33;;;;;;;32.40;17.47;;;;;;;0.87;89.08;99770.73;5205304;56;21231;-87
2021/01/19 18:23:39;;;;;;;26.63;15.00;;;;;;;0.88;88.84;99779.77;5206170;56;21182;-87
2021/01/19 18:28:45;;;;;;;27.93;14.63;;;;;;;0.89;89.12;99781.92;5218844;56;21206;-88
2021/01/19 18:33:50;;;;;;;28.87;13.70;;;;;;;0.85;89.23;99764.30;5212994;56;21130;-87
2021/01/19 18:38:56;;;;;;;58.87;27.10;;;;;;;0.86;89.12;99758.18;5216590;56;21127;-87
2021/01/19 18:44:02;;;;;;;257.43;89.67;;;;;;;0.87;88.98;99759.02;5212642;56;21124;-87
2021/01/19 18:49:14;;;;;;;66.77;28.87;;;;;;;0.90;88.86;99762.33;5208622;56;21158;-87
2021/01/19 18:54:19;;;;;;;103.23;34.07;;;;;;;0.90;88.89;99761.02;5217755;56;21496;-87
2021/01/19 18:59:25;;;;;;;95.73;32.00;;;;;;;0.90;88.90;99765.38;5222090;56;21210;-87
2021/01/19 19:04:31;;;;;;;96.63;31.23;;;;;;;0.90;89.07;99760.18;5200314;56;21183;-87
2021/01/19 19:09:36;;;;;;;120.67;33.23;;;;;;;0.87;89.02;99755.96;5207505;56;21151;-87
2021/01/19 19:14:42;;;;;;;54.53;21.53;;;;;;;0.90;88.89;99760.18;5198767;56;21477;-87
2021/01/19 19:19:48;;;;;;;47.50;18.33;;;;;;;0.88;89.03;99760.25;5227305;56;21160;-87
2021/01/19 19:24:53;;;;;;;96.00;38.63;;;;;;;0.86;89.19;99760.78;5207768;56;21148;-86
2021/01/19 19:29:59;;;;;;;45.80;19.40;;;;;;;0.87;88.87;99757.27;5201964;56;22532;-87
2021/01/19 19:35:05;;;;;;;27.80;14.63;;;;;;;0.88;88.91;99748.54;5231318;56;21139;-86
2021/01/19 19:40:11;;;;;;;28.53;13.87;;;;;;;0.88;88.94;99749.00;5202402;56;21171;-87
2021/01/19 19:45:17;;;;;;;31.07;14.43;;;;;;;0.85;88.93;99742.64;5214715;56;21135;-87
2021/01/19 19:50:23;;;;;;;40.07;22.67;;;;;;;0.85;88.89;99734.83;5215008;56;21101;-88
2021/01/19 19:55:31;;;;;;;36.27;18.63;;;;;;;0.85;88.90;99729.63;5111965;57;21232;-87
2021/01/19 20:00:39;;;;;;;38.53;18.87;;;;;;;0.87;89.08;99729.09;5149226;57;21081;-87
2021/01/19 20:05:45;;;;;;;38.37;18.20;;;;;;;0.89;88.93;99722.89;5173706;57;21154;-87
2021/01/19 20:10:51;;;;;;;37.60;20.93;;;;;;;0.89;88.99;99724.66;5153906;57;21219;-87
2021/01/19 20:15:56;;;;;;;51.13;21.97;;;;;;;0.88;88.88;99726.41;5140161;57;21147;-87
2021/01/19 20:21:02;;;;;;;39.23;21.27;;;;;;;0.92;88.94;99721.87;5132493;56;21213;-87
2021/01/19 20:26:14;;;;;;;59.73;29.60;;;;;;;0.95;88.89;99721.26;5116558;57;21509;-87
2021/01/19 20:31:20;;;;;;;44.63;22.57;;;;;;;0.94;88.93;99715.67;5125403;57;21111;-88
2021/01/19 20:36:25;;;;;;;56.50;29.03;;;;;;;0.95;88.83;99721.26;5118374;56;21164;-87
2021/01/19 20:41:31;;;;;;;34.83;19.73;;;;;;;0.97;88.77;99715.52;5133760;57;21178;-87
2021/01/19 20:46:36;;;;;;;39.90;19.53;;;;;;;0.98;88.77;99717.20;5101243;57;21128;-88
2021/01/19 20:51:43;;;;;;;32.57;12.87;;;;;;;0.95;88.89;99712.61;5148316;56;21136;-87
2021/01/19 20:56:49;;;;;;;28.13;13.73;;;;;;;0.94;89.31;99718.27;5234516;56;21167;-87
2021/01/19 21:01:56;;;;;;;36.03;18.50;;;;;;;0.93;89.13;99717.89;5249580;56;21154;-87
2021/01/19 21:07:01;;;;;;;41.23;20.20;;;;;;;0.92;89.13;99714.90;5164742;57;21156;-87
2021/01/19 21:12:10;;;;;;;35.57;18.27;;;;;;;0.95;89.13;99724.32;5207260;56;21285;-87
2021/01/19 21:17:16;;;;;;;38.27;18.70;;;;;;;0.94;89.13;99718.27;5249728;56;21150;-87
2021/01/19 21:22:21;;;;;;;49.17;24.93;;;;;;;0.92;89.30;99712.30;5169811;56;21283;-87
2021/01/19 21:27:27;;;;;;;33.63;18.90;;;;;;;0.96;89.18;99710.39;5164401;57;21356;-87
2021/01/19 21:32:33;;;;;;;39.77;17.37;;;;;;;0.95;89.42;99717.36;5214194;56;21251;-87
2021/01/19 21:37:39;;;;;;;31.67;14.43;;;;;;;0.97;89.23;99710.77;5211488;56;21262;-87
2021/01/19 21:42:45;;;;;;;37.13;18.73;;;;;;;0.97;89.35;99706.41;5164704;57;21524;-87
2021/01/19 21:47:53;;;;;;;49.87;23.60;;;;;;;0.98;89.27;99709.85;5164625;57;21260;-87
2021/01/19 21:52:59;;;;;;;35.07;15.93;;;;;;;0.99;89.21;99716.28;5167101;56;21295;-87
2021/01/19 21:58:05;;;;;;;35.00;16.83;;;;;;;1.03;89.27;99713.08;5197397;56;21143;-87
2021/01/19 22:03:11;;;;;;;50.23;22.37;;;;;;;1.00;89.35;99709.31;5250681;56;21092;-87
2021/01/19 22:08:16;;;;;;;45.30;22.13;;;;;;;1.01;89.35;99724.86;5250610;56;21124;-87
2021/01/19 22:13:22;;;;;;;32.23;18.30;;;;;;;1.04;89.31;99716.06;5250644;56;21289;-87
2021/01/19 22:18:27;;;;;;;31.60;14.97;;;;;;;1.07;89.33;99715.88;5250064;56;21322;-87
2021/01/19 22:23:33;;;;;;;21.20;11.60;;;;;;;1.06;89.38;99719.43;5166433;56;21310;-86
2021/01/19 22:28:39;;;;;;;34.70;18.43;;;;;;;1.06;89.63;99728.55;5238981;56;21281;-86
2021/01/19 22:33:44;;;;;;;22.37;13.13;;;;;;;1.07;89.31;99722.39;5221836;56;21254;-86
2021/01/19 22:38:50;;;;;;;32.37;17.70;;;;;;;1.07;89.59;99706.77;5164238;57;21307;-86
2021/01/19 22:43:55;;;;;;;27.37;16.77;;;;;;;1.11;89.39;99708.75;5195898;56;21262;-86
2021/01/19 22:49:01;;;;;;;27.07;15.50;;;;;;;1.10;89.61;99702.70;5189851;56;21617;-86
2021/01/19 22:54:06;;;;;;;29.00;14.57;;;;;;;1.10;89.55;99703.16;5164946;57;21411;-86
2021/01/19 22:59:12;;;;;;;25.93;15.27;;;;;;;1.13;89.39;99702.55;5165666;57;21183;-86
2021/01/19 23:04:18;;;;;;;25.27;13.97;;;;;;;1.14;89.68;99700.79;5165629;57;21148;-86
2021/01/19 23:09:24;;;;;;;22.70;12.80;;;;;;;1.15;89.30;99694.20;5165477;57;21168;-86
2021/01/19 23:14:29;;;;;;;32.27;17.07;;;;;;;1.15;89.60;99688.99;5165592;57;21375;-86
2021/01/19 23:19:35;;;;;;;25.00;13.33;;;;;;;1.13;89.42;99684.33;5184421;56;21123;-85
2021/01/19 23:24:45;;;;;;;12.60;6.77;;;;;;;1.16;89.34;99682.03;5251648;56;21147;-86
2021/01/19 23:29:51;;;;;;;23.70;14.27;;;;;;;1.18;90.05;99689.30;5210509;56;21140;-86
2021/01/19 23:34:56;;;;;;;20.43;12.20;;;;;;;1.19;89.40;99680.56;5168981;56;21109;-86